Time;durP1;ratioP1;P1;durP2;ratioP2;P2;SDS_P1;SDS_P2;PMS_P1;PMS_P2;Temp;Humidity;BMP_temperature;BMP_pressure;BME280_temperature;BME280_humidity;BME280_pressure;Samples;Min_cycle;Max_cycle;Signal;HPM_P1;HPM_P2
2023/02/25 00:00:21;;;;;;;9.73;2.63;;;3.50;97.30;;;;;;5053406;28;20229;-80
2023/02/25 00:02:48;;;;;;;3.77;1.67;;;3.50;97.30;;;;;;5064158;28;20448;-83
2023/02/25 00:05:17;;;;;;;4.33;2.40;;;3.50;97.30;;;;;;5060886;28;20273;-84
2023/02/25 00:07:43;;;;;;;5.43;5.13;;;3.50;97.30;;;;;;5050237;28;20524;-80
2023/02/25 00:10:10;;;;;;;1.90;1.80;;;3.50;97.30;;;;;;5056218;28;20207;-84
2023/02/25 00:12:36;;;;;;;3.70;2.43;;;3.60;97.30;;;;;;5050502;28;20221;-81
2023/02/25 00:15:03;;;;;;;3.67;3.47;;;3.50;97.30;;;;;;5060599;28;20421;-84
2023/02/25 00:17:28;;;;;;;4.40;2.47;;;3.60;97.30;;;;;;5055943;28;20507;-84
2023/02/25 00:19:56;;;;;;;2.80;2.70;;;3.60;97.30;;;;;;5077238;28;20206;-84
2023/02/25 00:22:21;;;;;;;5.97;2.10;;;3.60;97.30;;;;;;5063866;28;20177;-82
2023/02/25 00:24:51;;;;;;;3.00;2.03;;;3.60;97.30;;;;;;5078723;28;20458;-83
2023/02/25 00:27:17;;;;;;;1.47;1.40;;;3.60;97.30;;;;;;5057943;28;20217;-84
2023/02/25 00:29:42;;;;;;;1.83;1.80;;;3.60;97.30;;;;;;5056414;28;20688;-84
2023/02/25 00:32:08;;;;;;;3.60;1.97;;;3.60;97.30;;;;;;5066368;28;20174;-81
2023/02/25 00:34:33;;;;;;;2.17;2.00;;;3.60;97.30;;;;;;5053983;28;20175;-80
2023/02/25 00:36:59;;;;;;;4.40;2.93;;;3.60;97.30;;;;;;5051921;28;20195;-84
2023/02/25 00:39:40;;;;;;;4.10;2.40;;;3.60;97.30;;;;;;5058108;28;20183;-83
2023/02/25 00:42:07;;;;;;;1.43;1.33;;;3.60;97.30;;;;;;5053290;28;20183;-83
2023/02/25 00:44:33;;;;;;;2.50;1.87;;;3.60;97.30;;;;;;5051657;28;20429;-83
2023/02/25 00:46:58;;;;;;;1.70;1.60;;;3.60;97.30;;;;;;5058748;28;20413;-83
2023/02/25 00:49:25;;;;;;;2.95;1.80;;;3.60;97.30;;;;;;5061509;28;20779;-80
2023/02/25 00:51:51;;;;;;;1.93;1.83;;;3.60;97.30;;;;;;5062384;28;20181;-81
2023/02/25 00:54:16;;;;;;;2.20;1.53;;;3.60;97.30;;;;;;5059711;28;20413;-81
2023/02/25 00:56:42;;;;;;;1.30;1.20;;;3.60;97.30;;;;;;5052188;28;20206;-84
2023/02/25 00:59:07;;;;;;;2.17;1.40;;;3.60;97.30;;;;;;5058892;28;20670;-79
2023/02/25 01:01:33;;;;;;;1.27;1.17;;;3.70;97.30;;;;;;5048495;28;20210;-83
2023/02/25 01:03:59;;;;;;;1.40;1.30;;;3.70;97.30;;;;;;5064131;28;20194;-84
2023/02/25 01:06:27;;;;;;;5.50;1.97;;;3.70;97.30;;;;;;5067354;28;20661;-84
2023/02/25 01:08:52;;;;;;;2.77;2.60;;;3.70;97.30;;;;;;5056572;28;20185;-82
2023/02/25 01:11:26;;;;;;;1.10;1.00;;;3.70;97.30;;;;;;5050898;28;20425;-79
2023/02/25 01:13:52;;;;;;;1.67;1.57;;;3.70;97.30;;;;;;5057489;28;20210;-81
2023/02/25 01:16:20;;;;;;;4.23;2.40;;;3.70;97.30;;;;;;5055498;28;20413;-82
2023/02/25 01:18:46;;;;;;;1.97;1.50;;;3.70;97.30;;;;;;5051668;28;20441;-80
2023/02/25 01:21:24;;;;;;;1.33;1.23;;;3.70;97.30;;;;;;5055881;28;20429;-81
2023/02/25 01:24:00;;;;;;;1.10;1.00;;;3.70;97.30;;;;;;5048080;28;20566;-80
2023/02/25 01:26:28;;;;;;;4.73;2.70;;;3.70;97.30;;;;;;5053131;28;20448;-83
2023/02/25 01:28:54;;;;;;;4.53;1.30;;;3.70;97.30;;;;;;5062682;28;20469;-83
2023/02/25 01:33:47;;;;;;;1.00;0.90;;;3.70;97.30;;;;;;5101667;22;20262;-83
2023/02/25 01:36:13;;;;;;;2.27;2.07;;;3.70;97.30;;;;;;5034741;28;20410;-79
2023/02/25 01:38:38;;;;;;;2.33;2.17;;;3.70;97.30;;;;;;5034439;28;20188;-84
2023/02/25 01:41:04;;;;;;;1.30;1.20;;;3.70;97.30;;;;;;5046822;28;20239;-81
2023/02/25 01:43:29;;;;;;;1.10;1.00;;;3.70;97.30;;;;;;5002481;28;20207;-80
2023/02/25 01:45:55;;;;;;;1.73;1.70;;;3.70;97.30;;;;;;5015309;28;20632;-84
2023/02/25 01:48:31;;;;;;;1.77;1.40;;;3.60;97.30;;;;;;5012133;28;20282;-83
2023/02/25 01:51:02;;;;;;;1.10;1.00;;;3.60;97.30;;;;;;5012785;28;20460;-84
2023/02/25 01:53:39;;;;;;;0.90;0.80;;;3.60;97.30;;;;;;5014264;28;20445;-79
2023/02/25 01:56:04;;;;;;;1.00;0.90;;;3.50;97.30;;;;;;5015118;28;20413;-84
2023/02/25 01:58:32;;;;;;;1.00;0.90;;;3.50;97.30;;;;;;5005879;28;20227;-82
2023/02/25 02:00:58;;;;;;;1.60;1.50;;;3.50;97.30;;;;;;5000259;28;20544;-83
2023/02/25 02:03:32;;;;;;;1.03;0.93;;;3.50;97.30;;;;;;5007774;28;20535;-83
2023/02/25 02:06:03;;;;;;;1.50;1.40;;;3.50;97.30;;;;;;5009663;28;20747;-81
2023/02/25 02:08:30;;;;;;;0.90;0.80;;;3.40;97.30;;;;;;5007097;28;20415;-85
2023/02/25 02:10:56;;;;;;;1.20;1.10;;;3.40;97.30;;;;;;5012196;28;20805;-85
2023/02/25 02:13:22;;;;;;;2.43;2.23;;;3.40;97.30;;;;;;5029286;28;20411;-85
2023/02/25 02:16:02;;;;;;;1.10;1.00;;;3.40;97.30;;;;;;5034743;28;20418;-87
2023/02/25 02:18:32;;;;;;;1.00;0.90;;;3.40;97.30;;;;;;5012944;28;20472;-85
2023/02/25 02:21:18;;;;;;;0.80;0.70;;;3.40;97.30;;;;;;5012885;28;20701;-85
2023/02/25 02:24:03;;;;;;;1.10;1.00;;;3.40;97.30;;;;;;5003286;28;20459;-84
2023/02/25 02:26:32;;;;;;;1.10;1.00;;;3.40;97.30;;;;;;5027071;28;20539;-84
2023/02/25 02:29:21;;;;;;;4.77;4.47;;;3.40;97.30;;;;;;5007975;28;20213;-84
2023/02/25 02:31:59;;;;;;;1.30;1.20;;;3.30;97.30;;;;;;5007809;28;20236;-85
2023/02/25 02:34:48;;;;;;;1.00;0.90;;;3.30;97.30;;;;;;4998969;28;20219;-85
2023/02/25 02:37:30;;;;;;;1.10;1.00;;;3.30;97.30;;;;;;5009759;28;20949;-84
2023/02/25 02:40:15;;;;;;;1.50;1.40;;;3.20;97.30;;;;;;5001831;28;20415;-85
2023/02/25 02:42:53;;;;;;;1.20;1.10;;;3.20;97.30;;;;;;5002266;28;20471;-84
2023/02/25 02:45:24;;;;;;;1.10;1.00;;;3.20;97.30;;;;;;5013085;28;20953;-83
2023/02/25 02:48:00;;;;;;;1.00;0.90;;;3.20;97.30;;;;;;5012483;28;20511;-84
2023/02/25 02:50:32;;;;;;;0.90;0.80;;;3.20;97.30;;;;;;5012484;28;20205;-82
2023/02/25 02:53:03;;;;;;;1.00;0.90;;;3.20;97.30;;;;;;5001788;28;20829;-85
2023/02/25 02:55:36;;;;;;;1.00;0.90;;;3.20;97.30;;;;;;5012256;28;20446;-85
2023/02/25 02:58:25;;;;;;;1.17;1.07;;;3.20;97.30;;;;;;5009094;28;20404;-86
2023/02/25 03:01:00;;;;;;;1.10;1.00;;;3.10;97.30;;;;;;5006376;28;20419;-86
2023/02/25 03:03:37;;;;;;;1.20;1.10;;;3.00;97.30;;;;;;5012278;28;20458;-81
2023/02/25 03:06:07;;;;;;;1.33;1.23;;;2.90;97.30;;;;;;5014010;28;20706;-86
2023/02/25 03:08:43;;;;;;;1.10;1.00;;;2.70;97.30;;;;;;5008979;28;20414;-88
2023/02/25 03:11:09;;;;;;;1.67;1.60;;;2.60;97.30;;;;;;5008847;28;20414;-85
2023/02/25 03:13:35;;;;;;;1.70;1.60;;;2.40;97.30;;;;;;5002305;28;21107;-84
2023/02/25 03:16:06;;;;;;;7.97;1.27;;;2.30;97.30;;;;;;5009953;28;20499;-90
2023/02/25 03:18:37;;;;;;;1.20;1.10;;;2.10;97.30;;;;;;5015416;28;20214;-88
2023/02/25 03:21:10;;;;;;;2.10;1.67;;;2.00;97.30;;;;;;5010139;28;20430;-86
2023/02/25 03:23:38;;;;;;;1.20;1.10;;;2.00;97.30;;;;;;5012739;28;20465;-89
2023/02/25 03:26:28;;;;;;;1.20;1.10;;;2.00;97.30;;;;;;5002203;28;21011;-88
2023/02/25 03:28:55;;;;;;;1.40;1.30;;;2.00;97.30;;;;;;5028682;28;20406;-86
2023/02/25 03:31:25;;;;;;;1.30;1.20;;;2.00;97.30;;;;;;5007342;28;20193;-86
2023/02/25 03:34:06;;;;;;;1.30;1.20;;;2.00;97.30;;;;;;5013022;28;20508;-89
2023/02/25 03:37:04;;;;;;;1.10;1.00;;;2.00;97.30;;;;;;5003578;28;20252;-89
2023/02/25 03:39:35;;;;;;;1.10;1.10;;;2.00;97.30;;;;;;5000840;28;20242;-87
2023/02/25 03:42:04;;;;;;;1.10;1.00;;;2.10;97.30;;;;;;5005589;28;20429;-88
2023/02/25 03:44:34;;;;;;;1.10;1.00;;;2.10;97.30;;;;;;5005497;28;20467;-86
2023/02/25 03:47:01;;;;;;;1.10;1.00;;;2.10;97.30;;;;;;5002671;28;20220;-87
2023/02/25 03:49:36;;;;;;;1.20;1.10;;;2.10;97.30;;;;;;5007205;28;20456;-88
2023/02/25 03:52:08;;;;;;;1.27;1.17;;;2.10;97.30;;;;;;5010858;28;20228;-86
2023/02/25 03:54:33;;;;;;;2.73;2.53;;;2.10;97.30;;;;;;5013120;28;20220;-87
2023/02/25 03:57:00;;;;;;;1.10;1.00;;;2.10;97.30;;;;;;5010308;28;20519;-87
2023/02/25 03:59:26;;;;;;;1.20;1.10;;;2.10;97.30;;;;;;5021406;28;20204;-88
2023/02/25 04:01:54;;;;;;;1.07;0.97;;;2.00;97.30;;;;;;5013656;28;20444;-86
2023/02/25 04:04:19;;;;;;;1.40;1.30;;;2.00;97.30;;;;;;5012707;28;20232;-87
2023/02/25 04:06:46;;;;;;;1.10;1.00;;;2.10;97.30;;;;;;5012182;28;20574;-86
2023/02/25 04:09:11;;;;;;;7.63;3.73;;;2.10;97.30;;;;;;5010695;28;20200;-88
2023/02/25 04:11:37;;;;;;;1.10;1.00;;;2.10;97.30;;;;;;5021325;28;20220;-89
2023/02/25 04:14:02;;;;;;;1.10;1.00;;;2.10;97.30;;;;;;5021043;28;20192;-85
2023/02/25 04:16:28;;;;;;;1.60;1.50;;;2.20;97.30;;;;;;5021195;28;20184;-86
2023/02/25 04:18:53;;;;;;;1.10;1.00;;;2.20;97.30;;;;;;5015920;28;20300;-86
2023/02/25 04:21:29;;;;;;;1.10;1.00;;;2.20;97.30;;;;;;5022094;28;20229;-86
2023/02/25 04:23:54;;;;;;;0.97;0.87;;;2.20;97.30;;;;;;5012972;28;20208;-87
2023/02/25 04:26:20;;;;;;;1.23;1.13;;;2.20;97.30;;;;;;5019853;28;20496;-86
2023/02/25 04:28:46;;;;;;;1.40;1.30;;;2.20;97.30;;;;;;5018372;28;20480;-87
2023/02/25 04:31:11;;;;;;;1.40;1.30;;;2.20;97.30;;;;;;5014742;28;20188;-86
2023/02/25 04:33:37;;;;;;;1.20;1.10;;;2.20;97.30;;;;;;5017495;28;20232;-87
2023/02/25 04:36:03;;;;;;;1.20;1.10;;;2.20;97.30;;;;;;5006706;28;20550;-85
2023/02/25 04:38:28;;;;;;;1.50;1.40;;;2.20;97.30;;;;;;5006645;28;20167;-87
2023/02/25 04:40:54;;;;;;;3.60;2.77;;;2.20;97.30;;;;;;5004140;28;20191;-85
2023/02/25 04:43:19;;;;;;;1.43;1.33;;;2.30;97.30;;;;;;4998194;28;20247;-85
2023/02/25 04:45:45;;;;;;;3.30;1.43;;;2.20;97.30;;;;;;5011513;28;20684;-85
2023/02/25 04:48:11;;;;;;;1.30;1.20;;;2.20;97.30;;;;;;5006860;28;20373;-85
2023/02/25 04:50:36;;;;;;;1.00;0.90;;;2.30;97.30;;;;;;5001330;28;20173;-84
2023/02/25 04:53:02;;;;;;;1.10;1.00;;;2.30;97.30;;;;;;5010107;28;20193;-85
2023/02/25 04:55:29;;;;;;;4.30;1.20;;;2.30;97.30;;;;;;5011118;28;20231;-85
2023/02/25 04:57:54;;;;;;;1.17;1.07;;;2.40;97.30;;;;;;5008705;28;20170;-84
2023/02/25 05:00:23;;;;;;;1.10;1.00;;;2.40;97.30;;;;;;5005229;28;20406;-83
2023/02/25 05:02:49;;;;;;;1.20;1.10;;;2.40;97.30;;;;;;5000054;28;20298;-84
2023/02/25 05:05:15;;;;;;;1.20;1.10;;;2.50;97.30;;;;;;4998169;28;20198;-85
2023/02/25 05:07:40;;;;;;;1.27;1.17;;;2.50;97.30;;;;;;5001232;28;20438;-84
2023/02/25 05:10:08;;;;;;;3.10;2.03;;;2.60;97.30;;;;;;5008895;28;20401;-83
2023/02/25 05:12:33;;;;;;;1.10;1.00;;;2.60;97.30;;;;;;5002339;28;20331;-84
2023/02/25 05:14:59;;;;;;;1.37;1.20;;;2.60;97.30;;;;;;5001155;28;20666;-85
2023/02/25 05:17:25;;;;;;;1.00;0.90;;;2.60;97.30;;;;;;5008188;28;20177;-84
2023/02/25 05:19:50;;;;;;;1.20;1.10;;;2.60;97.30;;;;;;4996117;28;20208;-84
2023/02/25 05:22:16;;;;;;;0.60;0.60;;;2.60;97.30;;;;;;5009529;28;20208;-84
2023/02/25 05:24:41;;;;;;;1.10;1.00;;;2.60;97.30;;;;;;5003701;28;20296;-87
2023/02/25 05:27:07;;;;;;;0.90;0.80;;;2.60;97.30;;;;;;5002041;28;20185;-84
2023/02/25 05:29:32;;;;;;;1.20;1.10;;;2.70;97.30;;;;;;5010668;28;20204;-85
2023/02/25 05:31:58;;;;;;;1.33;1.23;;;2.70;97.30;;;;;;5004916;28;20200;-85
2023/02/25 05:34:23;;;;;;;4.03;1.87;;;2.70;97.30;;;;;;4982532;28;20524;-84
2023/02/25 05:36:49;;;;;;;1.10;1.00;;;2.70;97.30;;;;;;4983845;28;20163;-84
2023/02/25 05:39:14;;;;;;;1.07;0.97;;;2.70;97.30;;;;;;4989098;28;20202;-84
2023/02/25 05:41:40;;;;;;;1.20;1.10;;;2.70;97.30;;;;;;4992292;28;20535;-84
2023/02/25 05:44:06;;;;;;;1.60;1.50;;;2.70;97.30;;;;;;4985535;28;20207;-84
2023/02/25 05:46:32;;;;;;;1.07;0.97;;;2.70;97.30;;;;;;4989339;28;20177;-84
2023/02/25 05:48:58;;;;;;;1.23;1.13;;;2.70;97.30;;;;;;4983453;28;20303;-84
2023/02/25 05:51:23;;;;;;;1.10;1.00;;;2.80;97.30;;;;;;4992337;28;20219;-84
2023/02/25 05:53:52;;;;;;;1.30;1.20;;;2.70;97.30;;;;;;4989800;28;20229;-82
2023/02/25 05:56:21;;;;;;;1.53;1.43;;;2.70;97.30;;;;;;4982252;28;20260;-84
2023/02/25 05:58:47;;;;;;;1.10;1.00;;;2.70;97.30;;;;;;4985116;28;20421;-84
2023/02/25 06:01:15;;;;;;;1.20;1.10;;;2.70;97.30;;;;;;4985513;28;20417;-83
2023/02/25 06:03:42;;;;;;;1.10;1.00;;;2.70;97.30;;;;;;4999669;28;20464;-84
2023/02/25 06:06:11;;;;;;;1.30;1.20;;;2.70;97.30;;;;;;4991552;28;20409;-84
2023/02/25 06:08:37;;;;;;;1.10;1.00;;;2.70;97.30;;;;;;4986669;28;20979;-83
2023/02/25 06:11:05;;;;;;;1.37;1.27;;;2.70;97.30;;;;;;4980899;28;20425;-82
2023/02/25 06:13:31;;;;;;;1.27;1.17;;;2.80;97.30;;;;;;4988005;28;20472;-84
2023/02/25 06:15:57;;;;;;;1.10;1.00;;;2.80;97.30;;;;;;4981409;28;20409;-83
2023/02/25 06:18:22;;;;;;;0.90;0.80;;;2.80;97.30;;;;;;4992472;28;20200;-81
2023/02/25 06:20:48;;;;;;;1.07;0.97;;;2.80;97.30;;;;;;5005464;28;20574;-82
2023/02/25 06:23:13;;;;;;;1.00;0.90;;;2.80;97.30;;;;;;4976993;28;20209;-85
2023/02/25 06:25:39;;;;;;;1.20;1.10;;;2.80;97.30;;;;;;4983398;28;20181;-83
2023/02/25 06:28:04;;;;;;;1.10;1.00;;;2.80;97.30;;;;;;4984617;28;20178;-85
2023/02/25 06:30:30;;;;;;;1.10;1.00;;;2.80;97.30;;;;;;4984659;28;20209;-84
2023/02/25 06:32:56;;;;;;;0.90;0.80;;;2.80;97.30;;;;;;5001559;28;20236;-84
2023/02/25 06:35:22;;;;;;;3.53;1.20;;;2.80;97.30;;;;;;5004445;28;20189;-84
2023/02/25 06:37:56;;;;;;;1.20;1.10;;;2.80;97.30;;;;;;5000546;28;20424;-84
2023/02/25 06:40:22;;;;;;;1.10;1.00;;;2.80;97.30;;;;;;5004819;28;20456;-83
2023/02/25 06:42:47;;;;;;;1.60;1.50;;;2.90;97.30;;;;;;5003111;28;20515;-84
2023/02/25 06:45:13;;;;;;;1.10;1.00;;;2.80;97.30;;;;;;5004371;28;20508;-84
2023/02/25 06:47:39;;;;;;;1.30;1.20;;;2.90;97.30;;;;;;4997251;28;20191;-84
2023/02/25 06:50:06;;;;;;;1.30;1.20;;;2.90;97.30;;;;;;5012345;28;20420;-82
2023/02/25 06:52:32;;;;;;;1.40;1.30;;;2.80;97.30;;;;;;5009546;28;20545;-83
2023/02/25 06:54:57;;;;;;;5.07;1.87;;;2.90;97.30;;;;;;5010473;28;20443;-84
2023/02/25 06:57:23;;;;;;;1.10;1.00;;;2.80;97.30;;;;;;5009117;28;20432;-82
2023/02/25 06:59:48;;;;;;;2.47;2.27;;;2.90;97.30;;;;;;5005501;28;20185;-84
2023/02/25 07:02:14;;;;;;;1.20;1.10;;;2.90;97.30;;;;;;5007010;28;20196;-82
2023/02/25 07:04:42;;;;;;;3.63;1.57;;;2.90;97.30;;;;;;5002439;28;20586;-84
2023/02/25 07:07:07;;;;;;;1.10;1.00;;;2.90;97.30;;;;;;5005893;28;20178;-84
2023/02/25 07:09:33;;;;;;;1.80;1.37;;;2.90;97.30;;;;;;5001763;28;20839;-84
2023/02/25 07:11:58;;;;;;;1.20;1.10;;;2.90;97.30;;;;;;5008800;28;20559;-84
2023/02/25 07:14:24;;;;;;;1.20;1.10;;;2.90;97.30;;;;;;5006148;28;20235;-84
2023/02/25 07:16:49;;;;;;;2.30;2.10;;;2.90;97.30;;;;;;4995627;28;20174;-85
2023/02/25 07:19:15;;;;;;;1.30;1.20;;;2.80;97.30;;;;;;4996312;28;20181;-83
2023/02/25 07:21:41;;;;;;;1.10;1.00;;;2.80;97.30;;;;;;5007340;28;20185;-84
2023/02/25 07:24:08;;;;;;;1.30;1.20;;;2.80;97.30;;;;;;5003475;28;20569;-85
2023/02/25 07:26:33;;;;;;;8.90;2.10;;;2.70;97.30;;;;;;5006806;28;20435;-82
2023/02/25 07:28:59;;;;;;;1.30;1.20;;;2.70;97.30;;;;;;4998589;28;20421;-84
2023/02/25 07:31:28;;;;;;;1.10;1.00;;;2.70;97.30;;;;;;5004497;28;20200;-83
2023/02/25 07:33:54;;;;;;;0.93;0.83;;;2.70;97.30;;;;;;5011474;28;20229;-84
2023/02/25 07:36:20;;;;;;;1.20;1.10;;;2.70;97.30;;;;;;5009507;28;20423;-84
2023/02/25 07:38:49;;;;;;;1.10;1.00;;;2.70;97.30;;;;;;5007259;28;20420;-84
2023/02/25 07:41:17;;;;;;;22.80;1.33;;;2.60;97.30;;;;;;5003640;28;20439;-84
2023/02/25 07:43:43;;;;;;;1.50;1.40;;;2.60;97.30;;;;;;4995565;28;20476;-84
2023/02/25 07:46:09;;;;;;;1.20;1.10;;;2.60;97.30;;;;;;5004096;28;20516;-84
2023/02/25 07:48:35;;;;;;;2.60;2.40;;;2.60;97.30;;;;;;5001152;28;20732;-84
2023/02/25 07:51:12;;;;;;;1.30;1.20;;;2.50;97.30;;;;;;5001895;28;20532;-80
2023/02/25 07:53:38;;;;;;;3.43;1.50;;;2.50;97.30;;;;;;5010751;28;20208;-81
2023/02/25 07:56:06;;;;;;;8.80;1.73;;;2.50;97.30;;;;;;5010530;28;20443;-80
2023/02/25 07:58:32;;;;;;;1.13;1.03;;;2.50;97.30;;;;;;5014559;28;20427;-78
2023/02/25 08:00:58;;;;;;;1.20;1.10;;;2.50;97.30;;;;;;5005424;28;20420;-86
2023/02/25 08:03:24;;;;;;;1.10;1.00;;;2.50;97.30;;;;;;5010753;28;20532;-82
2023/02/25 08:05:53;;;;;;;1.00;0.90;;;2.40;97.30;;;;;;5009142;28;20411;-83
2023/02/25 08:08:19;;;;;;;1.20;1.10;;;2.40;97.30;;;;;;5016025;28;20216;-78
2023/02/25 08:10:44;;;;;;;3.67;1.30;;;2.40;97.30;;;;;;5004448;28;20217;-82
2023/02/25 08:13:10;;;;;;;1.00;0.90;;;2.40;97.30;;;;;;5004884;28;20533;-87
2023/02/25 08:15:40;;;;;;;2.07;1.93;;;2.30;97.30;;;;;;5002668;28;20598;-83
2023/02/25 08:18:06;;;;;;;1.23;1.13;;;2.30;97.30;;;;;;5023202;28;20223;-84
2023/02/25 08:20:31;;;;;;;1.20;1.10;;;2.30;97.30;;;;;;5004629;28;20432;-83
2023/02/25 08:22:57;;;;;;;1.10;1.00;;;2.20;97.30;;;;;;5010991;28;20275;-83
2023/02/25 08:25:23;;;;;;;1.20;1.10;;;2.20;97.30;;;;;;5012606;28;20172;-84
2023/02/25 08:27:49;;;;;;;1.20;1.10;;;2.10;97.30;;;;;;4998800;28;20943;-85
2023/02/25 08:30:15;;;;;;;1.23;1.13;;;1.90;97.30;;;;;;5005024;28;20412;-84
2023/02/25 08:32:40;;;;;;;1.10;1.00;;;1.80;97.30;;;;;;5007306;28;20733;-86
2023/02/25 08:35:07;;;;;;;1.20;1.10;;;1.70;97.30;;;;;;5000268;28;20732;-84
2023/02/25 08:37:32;;;;;;;1.10;1.00;;;1.70;97.30;;;;;;4997914;28;20208;-84
2023/02/25 08:39:58;;;;;;;1.13;1.03;;;1.70;97.30;;;;;;5010288;28;20225;-82
2023/02/25 08:42:24;;;;;;;1.50;1.40;;;1.70;97.30;;;;;;5007421;28;20201;-84
2023/02/25 08:44:50;;;;;;;1.20;1.10;;;1.60;97.30;;;;;;5011690;28;20432;-83
2023/02/25 08:47:18;;;;;;;1.10;1.00;;;1.60;97.30;;;;;;5018898;28;20434;-83
2023/02/25 08:49:45;;;;;;;1.20;1.10;;;1.60;97.30;;;;;;5002665;28;20259;-84
2023/02/25 08:52:10;;;;;;;1.23;1.13;;;1.50;97.30;;;;;;5008321;28;20462;-84
2023/02/25 08:54:40;;;;;;;1.10;1.00;;;1.60;97.30;;;;;;5011830;28;20931;-86
2023/02/25 08:57:05;;;;;;;1.20;1.10;;;1.50;97.30;;;;;;5006136;28;20181;-85
2023/02/25 08:59:34;;;;;;;1.33;1.23;;;1.60;97.30;;;;;;5003387;28;20412;-85
2023/02/25 09:02:13;;;;;;;1.67;1.57;;;1.60;97.30;;;;;;5004062;28;20216;-82
2023/02/25 09:04:39;;;;;;;1.47;1.37;;;1.60;97.30;;;;;;5010227;28;20997;-82
2023/02/25 09:07:05;;;;;;;1.53;1.43;;;1.70;97.30;;;;;;5010999;28;20417;-84
2023/02/25 09:09:32;;;;;;;1.30;1.20;;;1.70;97.30;;;;;;5003191;28;20181;-85
2023/02/25 09:11:59;;;;;;;1.40;1.30;;;1.80;97.30;;;;;;5002782;28;20201;-83
2023/02/25 09:14:25;;;;;;;2.70;2.50;;;1.80;97.30;;;;;;5007504;28;20801;-85
2023/02/25 09:16:50;;;;;;;3.47;1.13;;;1.90;97.30;;;;;;5004748;28;20420;-85
2023/02/25 09:19:17;;;;;;;1.10;1.00;;;1.90;97.30;;;;;;4998031;28;20455;-84
2023/02/25 09:21:46;;;;;;;1.40;1.30;;;2.00;97.30;;;;;;5005053;28;20181;-86
2023/02/25 09:24:12;;;;;;;1.60;1.50;;;2.00;97.30;;;;;;5010061;28;20464;-84
2023/02/25 09:26:38;;;;;;;1.00;0.90;;;2.10;97.30;;;;;;5005081;28;20953;-84
2023/02/25 09:29:05;;;;;;;1.10;1.00;;;2.20;97.30;;;;;;5007651;28;20498;-84
2023/02/25 09:31:33;;;;;;;1.50;1.40;;;2.20;97.30;;;;;;4998366;28;20181;-80
2023/02/25 09:34:00;;;;;;;1.23;1.13;;;2.20;97.30;;;;;;5006774;28;20548;-86
2023/02/25 09:36:28;;;;;;;1.40;1.30;;;2.20;97.30;;;;;;5005732;28;20435;-84
2023/02/25 09:38:56;;;;;;;1.50;1.40;;;2.30;97.30;;;;;;5006598;28;20453;-84
2023/02/25 09:41:35;;;;;;;1.20;1.10;;;2.30;97.30;;;;;;5007814;28;20878;-85
2023/02/25 09:44:07;;;;;;;1.20;1.10;;;2.40;97.30;;;;;;5008908;28;20875;-85
2023/02/25 09:46:36;;;;;;;1.33;1.23;;;2.40;97.30;;;;;;5011373;28;20465;-83
2023/02/25 09:49:26;;;;;;;1.50;1.40;;;2.40;97.30;;;;;;5015971;28;20412;-85
2023/02/25 09:51:59;;;;;;;1.10;1.00;;;2.40;97.30;;;;;;5005402;28;20444;-84
2023/02/25 09:54:43;;;;;;;1.10;1.00;;;2.50;97.30;;;;;;4999341;28;20849;-83
2023/02/25 09:57:14;;;;;;;1.10;1.00;;;2.50;97.30;;;;;;4999542;28;20519;-84
2023/02/25 09:59:40;;;;;;;1.20;1.10;;;2.60;97.30;;;;;;5003844;28;20932;-85
2023/02/25 10:02:43;;;;;;;2.80;1.40;;;2.60;97.30;;;;;;5001030;28;20478;-80
2023/02/25 10:05:20;;;;;;;1.43;1.33;;;2.60;97.30;;;;;;5000250;28;20602;-82
2023/02/25 10:07:58;;;;;;;1.40;1.30;;;2.50;97.30;;;;;;5012089;28;20416;-82
2023/02/25 10:10:48;;;;;;;1.53;1.53;;;2.50;97.30;;;;;;5003037;28;20424;-83
2023/02/25 10:13:20;;;;;;;1.57;1.47;;;2.50;97.30;;;;;;5005018;28;20452;-81
2023/02/25 10:15:56;;;;;;;1.10;1.00;;;2.50;97.30;;;;;;5008827;28;20977;-84
2023/02/25 10:18:39;;;;;;;1.67;1.57;;;2.50;97.30;;;;;;5006456;28;20416;-81
2023/02/25 10:21:22;;;;;;;3.47;2.20;;;2.50;97.30;;;;;;4999431;28;20419;-83
2023/02/25 10:24:10;;;;;;;1.30;1.20;;;2.60;97.30;;;;;;4997792;28;20821;-83
2023/02/25 10:26:41;;;;;;;1.33;1.23;;;2.50;97.30;;;;;;5003334;28;20920;-82
2023/02/25 10:29:14;;;;;;;1.40;1.30;;;2.50;97.30;;;;;;4994733;28;20428;-83
2023/02/25 10:31:44;;;;;;;1.30;1.20;;;2.60;97.30;;;;;;5010609;28;20420;-86
2023/02/25 10:34:24;;;;;;;1.13;1.03;;;2.50;97.30;;;;;;5006107;28;21023;-84
2023/02/25 10:36:57;;;;;;;1.20;1.10;;;2.50;97.30;;;;;;5011959;28;20783;-83
2023/02/25 10:39:25;;;;;;;1.50;1.40;;;2.50;97.30;;;;;;5001790;28;20504;-84
2023/02/25 10:41:50;;;;;;;2.83;1.73;;;2.50;97.30;;;;;;5010542;28;20435;-84
2023/02/25 10:44:16;;;;;;;1.43;1.33;;;2.50;97.30;;;;;;5009169;28;20490;-84
2023/02/25 10:46:47;;;;;;;1.20;1.10;;;2.60;97.30;;;;;;5005509;28;20565;-85
2023/02/25 10:49:15;;;;;;;1.13;1.03;;;2.50;97.30;;;;;;5001221;28;20419;-85
2023/02/25 10:52:02;;;;;;;1.50;1.40;;;2.50;97.30;;;;;;5013477;28;20415;-84
2023/02/25 10:54:29;;;;;;;1.43;1.37;;;2.60;97.30;;;;;;5013017;28;20501;-85
2023/02/25 10:56:57;;;;;;;1.37;1.27;;;2.60;97.30;;;;;;5014117;28;20893;-84
2023/02/25 10:59:38;;;;;;;1.33;1.23;;;2.70;97.30;;;;;;4996795;28;20515;-84
2023/02/25 11:02:20;;;;;;;1.40;1.30;;;2.80;97.30;;;;;;5004698;28;20448;-85
2023/02/25 11:04:48;;;;;;;3.80;1.60;;;2.80;97.30;;;;;;5014175;28;20466;-85
2023/02/25 11:07:34;;;;;;;1.30;1.20;;;2.80;97.30;;;;;;5012310;28;20407;-85
2023/02/25 11:10:20;;;;;;;1.40;1.30;;;2.80;97.30;;;;;;5006805;28;20562;-86
2023/02/25 11:12:52;;;;;;;1.10;1.00;;;2.80;97.30;;;;;;5005185;28;20523;-83
2023/02/25 11:15:37;;;;;;;4.53;1.40;;;2.80;97.30;;;;;;5002326;28;20424;-87
2023/02/25 11:18:05;;;;;;;2.23;2.03;;;2.90;97.30;;;;;;5012772;28;20503;-85
2023/02/25 11:20:32;;;;;;;1.23;1.13;;;2.90;97.30;;;;;;4999943;28;20937;-85
2023/02/25 11:22:58;;;;;;;1.10;1.00;;;2.90;97.30;;;;;;5012950;28;20498;-85
2023/02/25 11:25:42;;;;;;;1.60;1.50;;;2.90;97.30;;;;;;5011531;28;20420;-83
2023/02/25 11:28:22;;;;;;;1.00;0.90;;;2.90;97.30;;;;;;5023339;28;20904;-83
2023/02/25 11:30:47;;;;;;;1.20;1.10;;;3.00;97.30;;;;;;5004513;28;20435;-84
2023/02/25 11:33:29;;;;;;;1.77;1.67;;;3.00;97.30;;;;;;5014588;28;20463;-85
2023/02/25 11:35:58;;;;;;;2.13;1.97;;;3.10;97.30;;;;;;5012144;28;20214;-83
2023/02/25 11:38:34;;;;;;;1.00;0.90;;;3.10;97.30;;;;;;5018612;28;20439;-83
2023/02/25 11:41:00;;;;;;;1.10;1.00;;;3.10;97.30;;;;;;5018300;28;20948;-82
2023/02/25 11:43:33;;;;;;;1.20;1.10;;;3.10;97.30;;;;;;5024499;28;21618;-80
2023/02/25 11:46:05;;;;;;;1.03;0.93;;;3.10;97.30;;;;;;5019397;28;20411;-81
2023/02/25 11:48:53;;;;;;;1.13;1.03;;;3.20;97.30;;;;;;5017893;28;20850;-80
2023/02/25 11:51:27;;;;;;;1.13;1.03;;;3.20;97.30;;;;;;5031665;28;20519;-80
2023/02/25 11:54:17;;;;;;;1.00;0.90;;;3.20;97.30;;;;;;5018505;28;20419;-81
2023/02/25 11:56:50;;;;;;;1.27;1.10;;;3.30;97.30;;;;;;5017880;28;20451;-80
2023/02/25 11:59:36;;;;;;;1.00;0.90;;;3.30;97.30;;;;;;5034977;28;20414;-81
2023/02/25 12:02:27;;;;;;;1.30;1.20;;;3.40;97.30;;;;;;5019922;28;20493;-83
2023/02/25 12:05:15;;;;;;;1.10;1.00;;;3.40;97.30;;;;;;5017615;28;20462;-81
2023/02/25 12:07:54;;;;;;;1.43;1.33;;;3.40;97.30;;;;;;5022865;28;20434;-82
2023/02/25 12:10:44;;;;;;;1.17;1.07;;;3.50;97.30;;;;;;5018631;28;20459;-82
2023/02/25 12:13:58;;;;;;;1.10;1.00;;;3.50;97.30;;;;;;5037870;28;20465;-79
2023/02/25 12:16:57;;;;;;;0.97;0.87;;;3.40;97.30;;;;;;5015060;28;20452;-81
2023/02/25 12:20:13;;;;;;;1.00;0.90;;;3.30;97.30;;;;;;4990141;28;20423;-83
2023/02/25 12:22:56;;;;;;;1.10;1.00;;;3.30;97.30;;;;;;5026087;28;20483;-82
2023/02/25 12:25:40;;;;;;;1.07;0.97;;;3.30;97.30;;;;;;5028964;28;20431;-80
2023/02/25 12:28:40;;;;;;;1.10;1.00;;;3.30;97.30;;;;;;5031917;28;20418;-82
2023/02/25 12:31:27;;;;;;;1.40;1.30;;;3.30;97.30;;;;;;5017735;28;20419;-81
2023/02/25 12:34:20;;;;;;;1.00;0.90;;;3.30;97.30;;;;;;5019878;28;20893;-84
2023/02/25 12:36:55;;;;;;;1.00;0.90;;;3.30;97.30;;;;;;5021993;28;20945;-80
2023/02/25 12:39:45;;;;;;;1.00;0.90;;;3.40;97.30;;;;;;5016490;28;20450;-82
2023/02/25 12:42:26;;;;;;;1.20;1.10;;;3.40;97.30;;;;;;5039875;28;20442;-80
2023/02/25 12:45:01;;;;;;;1.43;1.33;;;3.40;97.30;;;;;;5011437;28;20472;-86
2023/02/25 12:47:56;;;;;;;1.00;0.90;;;3.50;97.30;;;;;;5017600;28;20442;-83
2023/02/25 12:50:33;;;;;;;1.00;0.90;;;3.50;97.30;;;;;;5033161;28;20456;-84
2023/02/25 12:53:27;;;;;;;1.27;1.17;;;3.60;97.30;;;;;;5025386;28;20438;-82
2023/02/25 12:56:17;;;;;;;1.63;1.53;;;3.60;97.30;;;;;;5021737;28;20436;-85
2023/02/25 12:58:58;;;;;;;1.10;1.00;;;3.60;97.30;;;;;;5016944;28;20550;-82
2023/02/25 13:01:50;;;;;;;1.00;0.90;;;3.50;97.30;;;;;;5039726;28;20446;-81
2023/02/25 13:04:33;;;;;;;0.97;0.87;;;3.60;97.30;;;;;;5015485;28;20553;-82
2023/02/25 13:07:23;;;;;;;1.23;1.13;;;3.50;97.30;;;;;;5007650;28;20552;-81
2023/02/25 13:10:25;;;;;;;1.10;1.00;;;3.40;97.30;;;;;;5016635;28;20418;-81
2023/02/25 13:12:57;;;;;;;1.00;0.90;;;3.30;97.30;;;;;;5021367;28;20441;-82
2023/02/25 13:15:51;;;;;;;1.00;0.90;;;3.00;97.30;;;;;;5002744;28;20417;-79
2023/02/25 13:18:31;;;;;;;1.57;1.47;;;2.80;97.30;;;;;;5017824;28;20403;-82
2023/02/25 13:21:28;;;;;;;1.00;0.90;;;2.80;97.30;;;;;;5032585;28;20698;-82